This is the latest recevied weather packets stored in our database for station/object F4GSP-4. If no packets are shown the sender has not sent any weather packets the latest 10 day(s).
| Time | Temp. | Humidity | Pressure | Rain* | Wind** | Luminosity | Snow |
|---|---|---|---|---|---|---|---|
| 1777984673 | 16.11° C | 65% | 1022.5 hPa | - | - | - | - |
| 1777983773 | 15.56° C | 68% | 1022.5 hPa | - | - | - | - |
| 1777982873 | 13.89° C | 68% | 1022.6 hPa | - | - | - | - |
| 1777981973 | 12.22° C | 64% | 1022.6 hPa | - | - | - | - |
| 1777981073 | 12.22° C | 58% | 1022.6 hPa | - | - | - | - |
| 1777980173 | 15° C | 56% | 1022.4 hPa | - | - | - | - |
| 1777979272 | 18.89° C | 58% | 1022.2 hPa | - | - | - | - |
| 1777978372 | 17.22° C | 59% | 1022.2 hPa | - | - | - | - |
| 1777977472 | 16.67° C | 58% | 1022.3 hPa | - | - | - | - |
| 1777976572 | 16.67° C | 58% | 1022.5 hPa | - | - | - | - |
| 1777975672 | 16.67° C | 59% | 1022.4 hPa | - | - | - | - |
| 1777974772 | 16.11° C | 59% | 1022.4 hPa | - | - | - | - |
| 1777973871 | 14.44° C | 60% | 1022.5 hPa | - | - | - | - |
| 1777972971 | 13.33° C | 60% | 1022.5 hPa | - | - | - | - |
| 1777972071 | 12.22° C | 59% | 1022.5 hPa | - | - | - | - |
| 1777971171 | 12.22° C | 59% | 1022.5 hPa | - | - | - | - |
| 1777970271 | 12.78° C | 59% | 1022.3 hPa | - | - | - | - |
| 1777969371 | 12.22° C | 60% | 1022.2 hPa | - | - | - | - |
| 1777968470 | 11.67° C | 60% | 1022.1 hPa | - | - | - | - |
| 1777967570 | 11.67° C | 60% | 1022.3 hPa | - | - | - | - |
| 1777966670 | 11.11° C | 60% | 1022.3 hPa | - | - | - | - |
| 1777965770 | 10.56° C | 60% | 1022.3 hPa | - | - | - | - |
| 1777964870 | 10° C | 60% | 1022.3 hPa | - | - | - | - |
| 1777963970 | 9.44° C | 60% | 1022.3 hPa | - | - | - | - |
| 1777963069 | 8.89° C | 60% | 1022.5 hPa | - | - | - | - |
* Rain since midnight (hover to see other rain measurements)
** Current wind speed in m/s (hover to see current wind gust speed)